Mineola, Missouri
Current Conditions -  °F | °C
As of 11:55 PM on Friday 19 Dec 2014 (Local Time) from KFYG Reporting Station
Haze Haze  
Wind Chill: 32°   Ceiling: 5500
Heat Index: 36°   Visibility: 6mi
Dew Point: 32°   Wind: 5mph
Humidity: 87%   Direction: 140°SE
Pressure: 30.26"   Gusts: NA
Location:  39.0022°N, 91.5066°W
Report Text: KFYG 200555Z AUTO 14004KT 6SM BR OVC055 02/00 A3026 RMK AO2
Loading
Personal Weather Stations






























Interactive Weather Map New forecast layout! Learn more

10-Day Weather Forecast

Advertisements
Track Severe Weather on mobile